Abboud-g — 3EMT6 — position and weather

sailwx.info

Track history (hours):
 
Tides and Currents Weather Stations Pressure Air Temp Water Temp Dewpoint Dewpoint Depression Visibility Wind Speed Wind Dir Waves Ship Positions

Abboud-g

Last reported at 2014-May-26 23:02 UTC. Time now 2014-Sep-21 16:14 UTC.
Position N 37°59' E 026°20'.
Warning: this ship's position is months out of date.

Length 146 m; draft 5 m.

Type: Cargo ship. MMSI: 353627000.

Date/timePositionNaut miles runAvg speedWind from/ knotsBaromVisibWave heightAir tempDewpointWater temp
2014-May-26 23:02N 37°59' E 026°20'10 9.2
2014-May-26 21:56N 37°50' E 026°26'4 8.7
2014-May-26 21:25N 37°46' E 026°28'12 8.8
2014-May-26 20:01N 37°36' E 026°37'4 8.6
2014-May-26 19:33N 37°33' E 026°40'4 8.7
2014-May-26 19:04N 37°29' E 026°43'5 8.6
2014-May-26 18:32N 37°25' E 026°46'4 8.6
2014-May-26 18:03N 37°22' E 026°49'6 8.7
2014-May-26 17:23N 37°17' E 026°53'3 9.0
2014-May-26 17:04N 37°15' E 026°55'5 9.0
2014-May-26 16:32N 37°10' E 026°58'4 9.0
2014-May-26 16:04N 37°07' E 027°01'5 9.0
2014-May-26 15:32N 37°03' E 027°04'  
Track history (hours):
 
Tides and Currents Weather Stations Pressure Air Temp Water Temp Dewpoint Dewpoint Depression Visibility Wind Speed Wind Dir Waves Ship Positions

Abboud-g

Last reported at 2014-May-26 23:02 UTC. Time now 2014-Sep-21 16:14 UTC.
Position N 37°59' E 026°20'.
Warning: this ship's position is months out of date.

Length 146 m; draft 5 m.

Type: Cargo ship. MMSI: 353627000.

Date/timePositionNaut miles runAvg speedWind from/ knotsBaromVisibWave heightAir tempDewpointWater temp
2014-May-26 23:02N 37°59' E 026°20'10 9.2
2014-May-26 21:56N 37°50' E 026°26'4 8.7
2014-May-26 21:25N 37°46' E 026°28'12 8.8
2014-May-26 20:01N 37°36' E 026°37'4 8.6
2014-May-26 19:33N 37°33' E 026°40'4 8.7
2014-May-26 19:04N 37°29' E 026°43'5 8.6
2014-May-26 18:32N 37°25' E 026°46'4 8.6
2014-May-26 18:03N 37°22' E 026°49'6 8.7
2014-May-26 17:23N 37°17' E 026°53'3 9.0
2014-May-26 17:04N 37°15' E 026°55'5 9.0
2014-May-26 16:32N 37°10' E 026°58'4 9.0
2014-May-26 16:04N 37°07' E 027°01'5 9.0
2014-May-26 15:32N 37°03' E 027°04'  

Dump ship's entire track history